Time;durP1;ratioP1;P1;durP2;ratioP2;P2;SDS_P1;SDS_P2;PMS_P1;PMS_P2;Temp;Humidity;BMP_temperature;BMP_pressure;BME280_temperature;BME280_humidity;BME280_pressure;Samples;Min_cycle;Max_cycle;Signal;HPM_P1;HPM_P2
2022/03/06 00:02:07;;;;;;;37.80;18.52;;;;;;;;;;5081466;28;20140;-75
2022/03/06 00:04:33;;;;;;;35.25;18.48;;;;;;;;;;5086392;28;20036;-75
2022/03/06 00:06:59;;;;;;;38.67;19.75;;;;;;;;;;5080807;28;20028;-75
2022/03/06 00:09:25;;;;;;;41.05;20.80;;;;;;;;;;5071289;28;20033;-75
2022/03/06 00:11:51;;;;;;;41.70;20.42;;;;;;;;;;5071377;28;20141;-75
2022/03/06 00:14:17;;;;;;;40.80;20.25;;;;;;;;;;5083857;28;20497;-75
2022/03/06 00:16:43;;;;;;;38.55;18.02;;;;;;;;;;5071228;28;20056;-75
2022/03/06 00:19:09;;;;;;;41.28;20.83;;;;;;;;;;5072930;28;20052;-75
2022/03/06 00:21:35;;;;;;;41.92;21.25;;;;;;;;;;5077430;28;20090;-75
2022/03/06 00:24:02;;;;;;;38.25;20.45;;;;;;;;;;5080337;28;20064;-75
2022/03/06 00:26:28;;;;;;;38.53;19.67;;;;;;;;;;5073310;28;20040;-75
2022/03/06 00:28:54;;;;;;;38.05;19.25;;;;;;;;;;5070942;28;20104;-75
2022/03/06 00:31:22;;;;;;;39.03;19.63;;;;;;;;;;5071234;28;20044;-75
2022/03/06 00:33:49;;;;;;;36.08;17.98;;;;;;;;;;5086094;28;20031;-75
2022/03/06 00:36:15;;;;;;;33.90;18.10;;;;;;;;;;5079308;28;20036;-75
2022/03/06 00:38:41;;;;;;;34.47;16.05;;;;;;;;;;5071143;28;20029;-75
2022/03/06 00:41:07;;;;;;;42.72;21.02;;;;;;;;;;5078848;28;20070;-75
2022/03/06 00:43:33;;;;;;;36.85;17.67;;;;;;;;;;5070948;28;20058;-75
2022/03/06 00:45:59;;;;;;;34.65;18.38;;;;;;;;;;5074894;28;20036;-75
2022/03/06 00:48:25;;;;;;;32.33;18.33;;;;;;;;;;5071050;28;20074;-75
2022/03/06 00:50:51;;;;;;;38.40;20.05;;;;;;;;;;5076119;28;20054;-75
2022/03/06 00:53:17;;;;;;;37.88;18.90;;;;;;;;;;5091227;28;20115;-75
2022/03/06 00:55:43;;;;;;;40.97;19.27;;;;;;;;;;5091105;28;20409;-75
2022/03/06 00:58:10;;;;;;;34.30;18.90;;;;;;;;;;5080790;28;20032;-75
2022/03/06 01:00:39;;;;;;;37.47;20.42;;;;;;;;;;5071249;28;20032;-75
2022/03/06 01:03:05;;;;;;;38.05;19.73;;;;;;;;;;5075235;28;20031;-75
2022/03/06 01:05:32;;;;;;;37.30;18.60;;;;;;;;;;5075327;28;20075;-76
2022/03/06 01:07:58;;;;;;;38.20;17.88;;;;;;;;;;5070369;28;20032;-75
2022/03/06 01:10:24;;;;;;;39.58;18.75;;;;;;;;;;5070526;28;20044;-75
2022/03/06 01:12:50;;;;;;;34.65;17.75;;;;;;;;;;5069987;28;20115;-75
2022/03/06 01:15:16;;;;;;;33.05;15.65;;;;;;;;;;5070397;28;20103;-75
2022/03/06 01:17:42;;;;;;;34.13;16.75;;;;;;;;;;5069674;28;20037;-75
2022/03/06 01:20:08;;;;;;;37.15;18.60;;;;;;;;;;5070659;28;20036;-75
2022/03/06 01:22:34;;;;;;;29.65;15.88;;;;;;;;;;5070194;28;20028;-75
2022/03/06 01:25:00;;;;;;;30.60;15.23;;;;;;;;;;5070262;28;20036;-75
2022/03/06 01:27:27;;;;;;;30.58;15.45;;;;;;;;;;5070062;28;20043;-75
2022/03/06 01:29:53;;;;;;;28.48;15.57;;;;;;;;;;5078777;28;20114;-75
2022/03/06 01:32:19;;;;;;;30.70;16.42;;;;;;;;;;5075798;28;20032;-75
2022/03/06 01:34:45;;;;;;;33.83;16.75;;;;;;;;;;5071124;28;20041;-76
2022/03/06 01:37:11;;;;;;;29.42;15.63;;;;;;;;;;5073085;28;20166;-75
2022/03/06 01:39:36;;;;;;;33.95;16.30;;;;;;;;;;5089814;28;20128;-75
2022/03/06 01:42:03;;;;;;;33.72;16.75;;;;;;;;;;5091018;28;20113;-76
2022/03/06 01:44:29;;;;;;;35.30;15.75;;;;;;;;;;5090479;28;20028;-75
2022/03/06 01:46:55;;;;;;;44.70;20.70;;;;;;;;;;5086099;28;20045;-75
2022/03/06 01:49:21;;;;;;;39.55;19.63;;;;;;;;;;5070376;28;20040;-75
2022/03/06 01:51:47;;;;;;;35.67;18.75;;;;;;;;;;5070892;28;20068;-75
2022/03/06 01:54:13;;;;;;;35.13;17.48;;;;;;;;;;5070105;28;20031;-76
2022/03/06 01:56:40;;;;;;;33.45;16.23;;;;;;;;;;5074400;28;20036;-75
2022/03/06 01:59:07;;;;;;;37.10;19.02;;;;;;;;;;5083841;28;20028;-76
2022/03/06 02:01:33;;;;;;;35.80;19.65;;;;;;;;;;5070589;28;20111;-76
2022/03/06 02:03:59;;;;;;;46.17;24.77;;;;;;;;;;5070241;28;20071;-75
2022/03/06 02:06:26;;;;;;;33.08;13.48;;;;;;;;;;5070947;28;20036;-75
2022/03/06 02:08:52;;;;;;;21.42;11.45;;;;;;;;;;5070109;28;20024;-76
2022/03/06 02:11:18;;;;;;;23.63;11.52;;;;;;;;;;5078329;28;20035;-76
2022/03/06 02:13:45;;;;;;;22.75;12.00;;;;;;;;;;5086174;28;20107;-76
2022/03/06 02:16:11;;;;;;;27.80;13.93;;;;;;;;;;5072362;28;20041;-76
2022/03/06 02:18:38;;;;;;;28.30;13.82;;;;;;;;;;5070074;28;20107;-76
2022/03/06 02:21:06;;;;;;;27.85;14.15;;;;;;;;;;5079882;28;20027;-76
2022/03/06 02:23:32;;;;;;;33.28;15.25;;;;;;;;;;5087955;28;20043;-76
2022/03/06 02:25:59;;;;;;;29.30;15.77;;;;;;;;;;5077673;28;20069;-76
2022/03/06 02:28:24;;;;;;;34.00;17.55;;;;;;;;;;5090133;28;20389;-76
2022/03/06 02:30:50;;;;;;;34.15;18.98;;;;;;;;;;5088882;28;20024;-76
2022/03/06 02:33:17;;;;;;;31.30;16.77;;;;;;;;;;5089741;28;20028;-76
2022/03/06 02:35:43;;;;;;;35.05;19.08;;;;;;;;;;5069341;28;20028;-76
2022/03/06 02:38:09;;;;;;;37.88;17.35;;;;;;;;;;5069647;28;20090;-76
2022/03/06 02:40:42;;;;;;;36.47;17.92;;;;;;;;;;5069357;28;21062;-75
2022/03/06 02:43:09;;;;;;;33.95;16.58;;;;;;;;;;5075314;28;20696;-76
2022/03/06 02:45:35;;;;;;;32.80;16.60;;;;;;;;;;5084689;28;20039;-76
2022/03/06 02:48:02;;;;;;;32.22;17.17;;;;;;;;;;5077507;28;20133;-76
2022/03/06 02:50:30;;;;;;;26.13;13.98;;;;;;;;;;5069675;28;20033;-76
2022/03/06 02:52:56;;;;;;;27.77;15.00;;;;;;;;;;5078195;28;20089;-76
2022/03/06 02:55:22;;;;;;;30.88;16.05;;;;;;;;;;5088407;28;20028;-76
2022/03/06 02:57:48;;;;;;;31.85;15.75;;;;;;;;;;5072196;28;20470;-76
2022/03/06 03:00:18;;;;;;;29.50;15.07;;;;;;;;;;5069426;28;20052;-76
2022/03/06 03:02:44;;;;;;;30.40;15.30;;;;;;;;;;5073232;28;20035;-76
2022/03/06 03:05:13;;;;;;;29.40;14.88;;;;;;;;;;5069160;28;20035;-76
2022/03/06 03:07:40;;;;;;;33.08;15.27;;;;;;;;;;5069825;28;20055;-76
2022/03/06 03:10:07;;;;;;;36.00;16.45;;;;;;;;;;5069410;28;20078;-76
2022/03/06 03:12:33;;;;;;;35.05;16.83;;;;;;;;;;5069193;28;20029;-76
2022/03/06 03:14:59;;;;;;;30.33;16.13;;;;;;;;;;5068595;28;20052;-76
2022/03/06 03:17:25;;;;;;;35.35;15.48;;;;;;;;;;5068842;28;20107;-76
2022/03/06 03:19:51;;;;;;;34.40;15.93;;;;;;;;;;5069012;28;20427;-76
2022/03/06 03:22:17;;;;;;;31.58;15.35;;;;;;;;;;5068459;28;20391;-76
2022/03/06 03:24:43;;;;;;;32.50;16.20;;;;;;;;;;5068779;28;20037;-76
2022/03/06 03:27:09;;;;;;;33.20;15.45;;;;;;;;;;5069175;28;20111;-76
2022/03/06 03:29:35;;;;;;;35.17;15.82;;;;;;;;;;5080330;28;20048;-76
2022/03/06 03:32:01;;;;;;;30.98;17.35;;;;;;;;;;5078035;28;20032;-76
2022/03/06 03:34:28;;;;;;;31.23;16.00;;;;;;;;;;5068250;28;20090;-75
2022/03/06 03:36:54;;;;;;;34.22;17.88;;;;;;;;;;5068923;28;20032;-76
2022/03/06 03:39:20;;;;;;;31.40;16.30;;;;;;;;;;5068346;28;20518;-76
2022/03/06 03:41:46;;;;;;;36.80;18.20;;;;;;;;;;5071672;28;20025;-76
2022/03/06 03:44:12;;;;;;;34.72;16.40;;;;;;;;;;5080949;28;20125;-76
2022/03/06 03:46:38;;;;;;;34.30;17.50;;;;;;;;;;5093545;28;20063;-76
2022/03/06 03:49:04;;;;;;;34.35;17.25;;;;;;;;;;5089295;28;20036;-76
2022/03/06 03:51:30;;;;;;;29.33;14.70;;;;;;;;;;5072806;28;20045;-76
2022/03/06 03:53:56;;;;;;;30.60;15.40;;;;;;;;;;5072740;28;20064;-76
2022/03/06 03:56:22;;;;;;;32.97;15.75;;;;;;;;;;5072322;28;20029;-76
2022/03/06 03:58:49;;;;;;;29.92;15.50;;;;;;;;;;5082273;28;20028;-76
2022/03/06 04:01:16;;;;;;;32.97;15.85;;;;;;;;;;5090996;28;20036;-76
2022/03/06 04:03:42;;;;;;;29.00;14.63;;;;;;;;;;5072572;28;20039;-76
2022/03/06 04:06:08;;;;;;;31.73;15.57;;;;;;;;;;5072088;28;20033;-76
2022/03/06 04:08:34;;;;;;;31.05;15.65;;;;;;;;;;5084557;28;20195;-77
2022/03/06 04:11:01;;;;;;;29.20;15.98;;;;;;;;;;5080758;28;20807;-76
2022/03/06 04:13:27;;;;;;;28.50;15.73;;;;;;;;;;5072063;28;20080;-76
2022/03/06 04:15:54;;;;;;;29.92;15.82;;;;;;;;;;5071824;28;20033;-76
2022/03/06 04:18:20;;;;;;;29.58;14.70;;;;;;;;;;5072066;28;20031;-76
2022/03/06 04:20:46;;;;;;;31.42;15.23;;;;;;;;;;5071690;28;20387;-76
2022/03/06 04:23:12;;;;;;;26.92;13.55;;;;;;;;;;5072374;28;20032;-76
2022/03/06 04:25:38;;;;;;;28.52;15.40;;;;;;;;;;5075961;28;20028;-76
2022/03/06 04:28:04;;;;;;;30.92;15.18;;;;;;;;;;5092634;28;20060;-76
2022/03/06 04:30:30;;;;;;;25.58;13.75;;;;;;;;;;5088821;28;20032;-76
2022/03/06 04:32:56;;;;;;;29.40;14.82;;;;;;;;;;5092276;28;20043;-76
2022/03/06 04:35:22;;;;;;;24.92;13.32;;;;;;;;;;5091894;28;20058;-76
2022/03/06 04:37:48;;;;;;;32.15;15.07;;;;;;;;;;5091365;28;20036;-76
2022/03/06 04:40:15;;;;;;;26.52;13.30;;;;;;;;;;5090646;28;20497;-76
2022/03/06 04:42:41;;;;;;;29.55;14.48;;;;;;;;;;5086501;28;20539;-76
2022/03/06 04:45:08;;;;;;;33.55;16.52;;;;;;;;;;5071239;28;20437;-76
2022/03/06 04:47:34;;;;;;;33.15;16.33;;;;;;;;;;5084567;28;20032;-76
2022/03/06 04:50:00;;;;;;;37.15;17.77;;;;;;;;;;5084039;28;20381;-76
2022/03/06 04:52:26;;;;;;;35.20;17.33;;;;;;;;;;5080763;28;20028;-76
2022/03/06 04:54:52;;;;;;;32.40;15.05;;;;;;;;;;5080640;28;20119;-76
2022/03/06 04:57:18;;;;;;;30.58;16.23;;;;;;;;;;5070870;28;20111;-76
2022/03/06 04:59:44;;;;;;;30.83;15.45;;;;;;;;;;5071382;28;20064;-76
2022/03/06 05:02:10;;;;;;;28.40;14.77;;;;;;;;;;5077897;28;20060;-76
2022/03/06 05:04:36;;;;;;;33.33;15.20;;;;;;;;;;5071033;28;20112;-76
2022/03/06 05:07:02;;;;;;;32.08;15.05;;;;;;;;;;5081956;28;20032;-76
2022/03/06 05:09:28;;;;;;;31.05;13.88;;;;;;;;;;5077749;28;20070;-76
2022/03/06 05:11:54;;;;;;;27.05;13.63;;;;;;;;;;5091649;28;20036;-76
2022/03/06 05:14:20;;;;;;;25.73;14.13;;;;;;;;;;5087921;28;20044;-76
2022/03/06 05:16:46;;;;;;;28.80;12.73;;;;;;;;;;5091307;28;20047;-76
2022/03/06 05:19:12;;;;;;;25.23;12.18;;;;;;;;;;5085509;28;20028;-76
2022/03/06 05:21:38;;;;;;;25.80;12.57;;;;;;;;;;5091391;28;20036;-76
2022/03/06 05:24:05;;;;;;;26.15;13.35;;;;;;;;;;5088697;28;20047;-76
2022/03/06 05:26:31;;;;;;;26.88;12.50;;;;;;;;;;5071194;28;20041;-76
2022/03/06 05:28:57;;;;;;;30.45;14.20;;;;;;;;;;5074461;28;20035;-76
2022/03/06 05:31:23;;;;;;;29.13;13.82;;;;;;;;;;5084916;28;20371;-76
2022/03/06 05:33:49;;;;;;;24.00;12.68;;;;;;;;;;5090720;28;20042;-76
2022/03/06 05:36:15;;;;;;;27.17;13.52;;;;;;;;;;5084111;28;20028;-76
2022/03/06 05:38:41;;;;;;;24.95;13.38;;;;;;;;;;5081271;28;20031;-76
2022/03/06 05:41:07;;;;;;;28.38;14.18;;;;;;;;;;5071479;28;20536;-76
2022/03/06 05:43:33;;;;;;;25.80;12.65;;;;;;;;;;5082126;28;20028;-76
2022/03/06 05:46:00;;;;;;;25.75;11.63;;;;;;;;;;5070275;28;20511;-76
2022/03/06 05:48:26;;;;;;;25.65;12.90;;;;;;;;;;5073536;28;20029;-76
2022/03/06 05:50:52;;;;;;;25.98;12.20;;;;;;;;;;5070467;28;20074;-76
2022/03/06 05:53:18;;;;;;;23.70;10.77;;;;;;;;;;5084204;28;20027;-76
2022/03/06 05:55:44;;;;;;;23.77;11.93;;;;;;;;;;5080780;28;20489;-76
2022/03/06 05:58:10;;;;;;;24.33;12.98;;;;;;;;;;5076037;28;20032;-76
2022/03/06 06:00:36;;;;;;;24.05;12.02;;;;;;;;;;5076306;28;20025;-76
2022/03/06 06:03:02;;;;;;;20.00;10.60;;;;;;;;;;5069751;28;20029;-76
2022/03/06 06:05:29;;;;;;;21.63;12.05;;;;;;;;;;5073232;28;20119;-76
2022/03/06 06:07:55;;;;;;;23.92;10.88;;;;;;;;;;5077482;28;20248;-76
2022/03/06 06:10:21;;;;;;;24.05;11.60;;;;;;;;;;5085545;28;20390;-76
2022/03/06 06:12:47;;;;;;;21.38;11.07;;;;;;;;;;5077951;28;20074;-76
2022/03/06 06:15:13;;;;;;;25.98;12.50;;;;;;;;;;5070047;28;20036;-76
2022/03/06 06:17:39;;;;;;;22.02;11.48;;;;;;;;;;5075868;28;20028;-76
2022/03/06 06:20:07;;;;;;;24.00;11.68;;;;;;;;;;5076479;28;20124;-76
2022/03/06 06:22:33;;;;;;;24.48;12.77;;;;;;;;;;5077352;28;20062;-76
2022/03/06 06:24:59;;;;;;;24.83;11.75;;;;;;;;;;5073076;28;20032;-76
2022/03/06 06:27:25;;;;;;;26.65;13.23;;;;;;;;;;5073842;28;20039;-76
2022/03/06 06:29:52;;;;;;;22.58;11.02;;;;;;;;;;5084761;28;20039;-77
2022/03/06 06:32:18;;;;;;;26.92;12.27;;;;;;;;;;5080201;28;20086;-76
2022/03/06 06:34:45;;;;;;;22.10;10.57;;;;;;;;;;5069596;28;20067;-76
2022/03/06 06:37:11;;;;;;;21.33;11.30;;;;;;;;;;5090825;28;20046;-76
2022/03/06 06:39:37;;;;;;;24.10;12.15;;;;;;;;;;5079746;28;20032;-76
2022/03/06 06:42:03;;;;;;;24.65;12.00;;;;;;;;;;5079601;28;20028;-76
2022/03/06 06:44:30;;;;;;;27.95;12.90;;;;;;;;;;5080276;28;20479;-76
2022/03/06 06:46:56;;;;;;;25.10;11.85;;;;;;;;;;5080766;28;20120;-77
2022/03/06 06:49:22;;;;;;;24.48;11.50;;;;;;;;;;5075233;28;20108;-76
2022/03/06 06:51:48;;;;;;;25.90;11.80;;;;;;;;;;5075548;28;20070;-76
2022/03/06 06:54:15;;;;;;;25.05;12.80;;;;;;;;;;5086701;28;20056;-76
2022/03/06 06:56:41;;;;;;;24.67;13.30;;;;;;;;;;5074535;28;20032;-77
2022/03/06 06:59:07;;;;;;;20.77;11.43;;;;;;;;;;5075614;28;20099;-76
2022/03/06 07:01:33;;;;;;;25.63;12.82;;;;;;;;;;5077424;28;20032;-76
2022/03/06 07:03:59;;;;;;;25.52;12.90;;;;;;;;;;5084501;28;20059;-76
2022/03/06 07:06:25;;;;;;;23.92;12.90;;;;;;;;;;5097596;28;20072;-76
2022/03/06 07:08:51;;;;;;;30.00;14.75;;;;;;;;;;5081349;28;20039;-76
2022/03/06 07:11:17;;;;;;;31.10;15.60;;;;;;;;;;5081562;28;20036;-76
2022/03/06 07:13:43;;;;;;;29.05;14.48;;;;;;;;;;5088707;28;20055;-76
2022/03/06 07:16:09;;;;;;;26.95;14.77;;;;;;;;;;5070466;28;20071;-76
2022/03/06 07:18:35;;;;;;;30.92;14.50;;;;;;;;;;5073810;28;20021;-76
2022/03/06 07:21:02;;;;;;;26.08;14.25;;;;;;;;;;5085911;28;20039;-76
2022/03/06 07:23:29;;;;;;;30.85;16.13;;;;;;;;;;5102389;28;20103;-76
2022/03/06 07:25:55;;;;;;;29.08;15.35;;;;;;;;;;5069096;28;20040;-76
2022/03/06 07:28:21;;;;;;;26.25;14.27;;;;;;;;;;5074892;28;20024;-76
2022/03/06 07:30:48;;;;;;;26.85;14.27;;;;;;;;;;5076261;28;20045;-76
2022/03/06 07:33:14;;;;;;;25.50;14.80;;;;;;;;;;5085783;28;20103;-76
2022/03/06 07:35:40;;;;;;;27.55;15.25;;;;;;;;;;5092465;28;20045;-76
2022/03/06 07:38:06;;;;;;;25.90;15.30;;;;;;;;;;5091166;28;20031;-76
2022/03/06 07:40:32;;;;;;;33.80;16.92;;;;;;;;;;5069797;28;20040;-77
2022/03/06 07:42:58;;;;;;;40.40;17.95;;;;;;;;;;5068411;28;20028;-76
2022/03/06 07:45:24;;;;;;;42.03;19.50;;;;;;;;;;5075157;28;20110;-76
2022/03/06 07:47:50;;;;;;;43.00;20.40;;;;;;;;;;5073402;28;20528;-76
2022/03/06 07:50:16;;;;;;;37.38;18.75;;;;;;;;;;5083297;28;20036;-76
2022/03/06 07:52:43;;;;;;;31.70;16.58;;;;;;;;;;5075523;28;20040;-76
2022/03/06 07:55:09;;;;;;;29.85;14.93;;;;;;;;;;5073465;28;20033;-76
2022/03/06 07:57:36;;;;;;;28.40;16.20;;;;;;;;;;5068013;28;20070;-76
2022/03/06 08:00:03;;;;;;;30.15;17.13;;;;;;;;;;5072884;28;20105;-76
2022/03/06 08:02:29;;;;;;;28.20;16.20;;;;;;;;;;5072776;28;20078;-76
2022/03/06 08:04:55;;;;;;;32.17;16.20;;;;;;;;;;5078373;28;20040;-76
2022/03/06 08:07:21;;;;;;;27.42;15.57;;;;;;;;;;5071499;28;20028;-76
2022/03/06 08:09:47;;;;;;;32.03;15.80;;;;;;;;;;5073953;28;20100;-76
2022/03/06 08:12:13;;;;;;;29.60;16.88;;;;;;;;;;5072300;28;20039;-76
2022/03/06 08:14:39;;;;;;;32.38;18.00;;;;;;;;;;5069741;28;20048;-76
2022/03/06 08:17:05;;;;;;;36.85;17.27;;;;;;;;;;5067396;28;20123;-75
2022/03/06 08:19:31;;;;;;;37.83;18.42;;;;;;;;;;5070370;28;20036;-76
2022/03/06 08:21:57;;;;;;;35.28;18.73;;;;;;;;;;5078932;28;20039;-76
2022/03/06 08:24:23;;;;;;;30.77;17.15;;;;;;;;;;5085643;28;20032;-75
2022/03/06 08:26:49;;;;;;;36.30;16.58;;;;;;;;;;5071875;28;20032;-76
2022/03/06 08:29:15;;;;;;;29.52;15.85;;;;;;;;;;5073885;28;20862;-76
2022/03/06 08:31:41;;;;;;;27.17;16.63;;;;;;;;;;5072676;28;20055;-76
2022/03/06 08:34:07;;;;;;;28.58;16.17;;;;;;;;;;5071893;28;20029;-76
2022/03/06 08:36:34;;;;;;;25.10;13.20;;;;;;;;;;5072298;28;20041;-76
2022/03/06 08:39:00;;;;;;;25.52;13.38;;;;;;;;;;5077568;28;20020;-76
2022/03/06 08:41:26;;;;;;;19.63;11.35;;;;;;;;;;5074848;28;20036;-76
2022/03/06 08:43:52;;;;;;;21.33;11.70;;;;;;;;;;5078418;28;20036;-76
2022/03/06 08:46:18;;;;;;;22.67;12.45;;;;;;;;;;5079938;28;20036;-76
2022/03/06 08:48:44;;;;;;;21.17;12.85;;;;;;;;;;5074972;28;20503;-75
2022/03/06 08:51:10;;;;;;;21.55;12.43;;;;;;;;;;5075145;28;20082;-76
2022/03/06 08:53:36;;;;;;;20.38;12.02;;;;;;;;;;5082505;28;20071;-76
2022/03/06 08:56:03;;;;;;;21.17;10.20;;;;;;;;;;5078577;28;20127;-76
2022/03/06 08:58:29;;;;;;;18.63;9.32;;;;;;;;;;5084472;28;20032;-76
2022/03/06 09:00:55;;;;;;;21.65;11.25;;;;;;;;;;5078766;28;20036;-76
2022/03/06 09:03:21;;;;;;;20.67;12.40;;;;;;;;;;5078520;28;20062;-76
2022/03/06 09:05:47;;;;;;;24.63;12.70;;;;;;;;;;5076370;28;20901;-76
2022/03/06 09:08:13;;;;;;;20.60;11.85;;;;;;;;;;5076975;28;20032;-76
2022/03/06 09:10:40;;;;;;;22.13;12.75;;;;;;;;;;5076476;28;20036;-76
2022/03/06 09:13:07;;;;;;;21.75;11.63;;;;;;;;;;5077491;28;20113;-76
2022/03/06 09:15:34;;;;;;;19.35;11.63;;;;;;;;;;5078295;28;20039;-76
2022/03/06 09:18:00;;;;;;;24.83;15.50;;;;;;;;;;5079323;28;20027;-76
2022/03/06 09:20:26;;;;;;;27.95;14.95;;;;;;;;;;5093272;28;20047;-74
2022/03/06 09:22:52;;;;;;;32.15;17.00;;;;;;;;;;5075498;28;20028;-75
2022/03/06 09:25:18;;;;;;;30.30;17.27;;;;;;;;;;5084643;28;20046;-74
2022/03/06 09:27:44;;;;;;;22.95;13.48;;;;;;;;;;5078704;28;20029;-74
2022/03/06 09:30:11;;;;;;;23.63;12.70;;;;;;;;;;5083441;28;20142;-73
2022/03/06 09:32:37;;;;;;;25.15;14.52;;;;;;;;;;5076806;28;20055;-74
2022/03/06 09:35:04;;;;;;;25.20;15.93;;;;;;;;;;5087990;28;20648;-75
2022/03/06 09:37:30;;;;;;;32.15;18.30;;;;;;;;;;5087014;28;20390;-74
2022/03/06 09:39:56;;;;;;;32.97;18.40;;;;;;;;;;5082114;28;20040;-73
2022/03/06 09:42:22;;;;;;;27.13;16.85;;;;;;;;;;5080300;28;20028;-73
2022/03/06 09:44:49;;;;;;;22.88;13.13;;;;;;;;;;5075242;28;20129;-74
2022/03/06 09:47:16;;;;;;;21.38;11.80;;;;;;;;;;5079411;28;20036;-73
2022/03/06 09:49:43;;;;;;;27.52;13.95;;;;;;;;;;5076205;28;20194;-73
2022/03/06 09:52:10;;;;;;;21.88;13.23;;;;;;;;;;5075343;28;20375;-73
2022/03/06 09:54:36;;;;;;;25.33;14.50;;;;;;;;;;5077724;28;20044;-74
2022/03/06 09:57:02;;;;;;;20.77;13.95;;;;;;;;;;5079339;28;20132;-74
2022/03/06 09:59:30;;;;;;;22.17;11.85;;;;;;;;;;5077062;28;20074;-73
2022/03/06 10:01:59;;;;;;;22.85;12.98;;;;;;;;;;5076412;28;20078;-73
2022/03/06 10:04:29;;;;;;;20.75;12.65;;;;;;;;;;5079709;28;20040;-74
2022/03/06 10:06:59;;;;;;;20.98;12.93;;;;;;;;;;5076080;28;20031;-73
2022/03/06 10:09:26;;;;;;;23.25;13.07;;;;;;;;;;5082710;28;20048;-74
2022/03/06 10:11:54;;;;;;;23.92;13.75;;;;;;;;;;5086606;28;20039;-73
2022/03/06 10:14:39;;;;;;;22.85;12.60;;;;;;;;;;5077651;28;20043;-74
2022/03/06 10:17:09;;;;;;;21.95;12.95;;;;;;;;;;5072314;28;20426;-74
2022/03/06 10:19:54;;;;;;;20.08;13.18;;;;;;;;;;5071575;28;20043;-73
2022/03/06 10:22:20;;;;;;;20.77;12.50;;;;;;;;;;5073814;28;20056;-73
2022/03/06 10:24:50;;;;;;;30.80;12.27;;;;;;;;;;5078313;28;20035;-73
2022/03/06 10:27:17;;;;;;;23.92;12.90;;;;;;;;;;5073344;28;20068;-73
2022/03/06 10:29:43;;;;;;;21.20;13.30;;;;;;;;;;5073770;28;20036;-73
2022/03/06 10:44:44;;;;;;;21.45;13.88;;;;;;;;;;5124719;27;20452;-81
2022/03/06 10:47:10;;;;;;;23.50;14.50;;;;;;;;;;5097948;28;20077;-81
2022/03/06 10:49:36;;;;;;;23.15;14.75;;;;;;;;;;5104212;28;20068;-81
2022/03/06 10:52:14;;;;;;;22.20;13.40;;;;;;;;;;5105583;28;20036;-81
2022/03/06 10:54:50;;;;;;;23.08;15.05;;;;;;;;;;5097163;28;20424;-81
2022/03/06 10:57:16;;;;;;;20.77;13.45;;;;;;;;;;5095448;28;20028;-81
2022/03/06 10:59:44;;;;;;;21.33;13.60;;;;;;;;;;5095831;28;20128;-82
2022/03/06 11:02:11;;;;;;;21.35;12.98;;;;;;;;;;5100612;28;20039;-81
2022/03/06 11:04:38;;;;;;;21.58;12.93;;;;;;;;;;5104610;28;20079;-81
2022/03/06 11:07:04;;;;;;;21.42;12.75;;;;;;;;;;5098496;28;20031;-81
2022/03/06 11:09:31;;;;;;;21.95;14.00;;;;;;;;;;5101233;28;20036;-80
2022/03/06 11:11:57;;;;;;;21.17;13.05;;;;;;;;;;5094359;28;20053;-80
2022/03/06 11:14:24;;;;;;;24.75;15.18;;;;;;;;;;5098580;28;20074;-80
2022/03/06 11:16:50;;;;;;;22.10;14.13;;;;;;;;;;5102325;28;20501;-81
2022/03/06 11:19:16;;;;;;;21.98;13.90;;;;;;;;;;5099053;28;20020;-80
2022/03/06 11:21:44;;;;;;;23.67;12.95;;;;;;;;;;5092746;28;20071;-80
2022/03/06 11:24:36;;;;;;;20.25;12.98;;;;;;;;;;5101517;28;20055;-79
2022/03/06 11:27:02;;;;;;;23.27;13.00;;;;;;;;;;5094873;28;20518;-79
2022/03/06 11:29:47;;;;;;;22.25;12.68;;;;;;;;;;5094681;28;20020;-80
2022/03/06 11:32:13;;;;;;;21.17;12.75;;;;;;;;;;5094608;28;20074;-79
2022/03/06 11:34:40;;;;;;;21.67;14.45;;;;;;;;;;5100633;28;20024;-80
2022/03/06 11:37:10;;;;;;;18.65;12.30;;;;;;;;;;5104466;28;20036;-82
2022/03/06 11:39:36;;;;;;;20.42;13.80;;;;;;;;;;5103402;28;20028;-81
2022/03/06 11:42:06;;;;;;;22.25;13.10;;;;;;;;;;5094452;28;20078;-80
2022/03/06 11:44:48;;;;;;;19.73;12.65;;;;;;;;;;5087487;28;20076;-81
2022/03/06 11:47:14;;;;;;;25.40;15.02;;;;;;;;;;5084967;28;20032;-81
2022/03/06 11:49:40;;;;;;;23.48;15.40;;;;;;;;;;5080633;28;20024;-81
2022/03/06 11:52:41;;;;;;;21.33;14.25;;;;;;;;;;5081195;28;20161;-80
2022/03/06 11:55:28;;;;;;;24.83;13.93;;;;;;;;;;5054252;28;20158;-80
2022/03/06 11:57:53;;;;;;;22.25;15.02;;;;;;;;;;5078949;28;20043;-81
2022/03/06 12:00:21;;;;;;;22.48;14.73;;;;;;;;;;5083747;28;20744;-80
2022/03/06 12:02:52;;;;;;;21.75;13.63;;;;;;;;;;5080029;28;20046;-81
2022/03/06 12:05:20;;;;;;;25.67;13.98;;;;;;;;;;5078874;28;20081;-81
2022/03/06 12:07:47;;;;;;;23.27;14.18;;;;;;;;;;5077611;28;20045;-81
2022/03/06 12:10:14;;;;;;;24.48;13.00;;;;;;;;;;5080158;28;20036;-81
2022/03/06 12:12:40;;;;;;;20.77;13.40;;;;;;;;;;5079952;28;20493;-81
2022/03/06 12:15:13;;;;;;;19.88;13.18;;;;;;;;;;5080096;28;20070;-80
2022/03/06 12:17:39;;;;;;;24.52;13.60;;;;;;;;;;5087720;28;20123;-81
2022/03/06 12:20:18;;;;;;;25.67;16.42;;;;;;;;;;5082174;28;20031;-81
2022/03/06 12:22:45;;;;;;;28.65;16.60;;;;;;;;;;5078008;28;20036;-80
2022/03/06 12:25:13;;;;;;;24.70;15.50;;;;;;;;;;5085184;28;20020;-81
2022/03/06 12:27:41;;;;;;;23.00;14.57;;;;;;;;;;5078042;28;20040;-81
2022/03/06 12:30:08;;;;;;;23.58;15.15;;;;;;;;;;5082771;28;20051;-81
2022/03/06 12:32:35;;;;;;;25.85;16.38;;;;;;;;;;5086421;28;20051;-80
2022/03/06 12:35:11;;;;;;;30.92;17.65;;;;;;;;;;5076168;28;20024;-80
2022/03/06 12:37:51;;;;;;;35.92;21.00;;;;;;;;;;5085021;28;20040;-80
2022/03/06 12:40:22;;;;;;;28.48;13.45;;;;;;;;;;5076762;28;20028;-80
2022/03/06 12:42:51;;;;;;;22.67;14.82;;;;;;;;;;5089309;28;20087;-81
2022/03/06 12:45:18;;;;;;;22.60;15.23;;;;;;;;;;5087861;28;20038;-81
2022/03/06 12:47:44;;;;;;;28.50;19.02;;;;;;;;;;5085556;28;20819;-81
2022/03/06 12:50:12;;;;;;;23.98;14.25;;;;;;;;;;5075984;28;20033;-80
2022/03/06 12:52:39;;;;;;;20.75;13.48;;;;;;;;;;5078653;28;20047;-81
2022/03/06 12:55:06;;;;;;;21.05;13.05;;;;;;;;;;5087055;28;20944;-81
2022/03/06 12:57:37;;;;;;;21.02;13.02;;;;;;;;;;5082171;28;20064;-80
2022/03/06 13:00:12;;;;;;;21.88;13.45;;;;;;;;;;5084447;28;20571;-80
2022/03/06 13:02:38;;;;;;;23.88;13.52;;;;;;;;;;5074000;28;20032;-81
2022/03/06 13:05:04;;;;;;;20.73;13.65;;;;;;;;;;5083569;28;20138;-80
2022/03/06 13:07:31;;;;;;;21.67;13.52;;;;;;;;;;5085563;28;20031;-81
2022/03/06 13:10:05;;;;;;;24.27;14.00;;;;;;;;;;5084505;28;20410;-80
2022/03/06 13:12:35;;;;;;;23.73;13.65;;;;;;;;;;5083013;28;20485;-81
2022/03/06 13:15:01;;;;;;;20.27;14.15;;;;;;;;;;5085784;28;20095;-81
2022/03/06 13:17:27;;;;;;;21.45;14.25;;;;;;;;;;5087125;28;20035;-80
2022/03/06 13:19:57;;;;;;;25.10;13.93;;;;;;;;;;5087401;28;20024;-80
2022/03/06 13:22:26;;;;;;;27.48;13.07;;;;;;;;;;5086348;28;20461;-81
2022/03/06 13:24:56;;;;;;;20.30;12.88;;;;;;;;;;5083336;28;20043;-80
2022/03/06 13:27:24;;;;;;;18.58;12.23;;;;;;;;;;5080729;28;20457;-80
2022/03/06 13:29:59;;;;;;;20.05;12.90;;;;;;;;;;5087670;28;20385;-80
2022/03/06 13:32:29;;;;;;;23.77;13.60;;;;;;;;;;5081750;28;20062;-80
2022/03/06 13:34:55;;;;;;;19.00;11.95;;;;;;;;;;5078422;28;20026;-80
2022/03/06 13:37:32;;;;;;;20.73;11.90;;;;;;;;;;5081040;28;20043;-80
2022/03/06 13:39:58;;;;;;;20.52;12.48;;;;;;;;;;5082379;28;20070;-80
2022/03/06 13:42:34;;;;;;;18.92;12.43;;;;;;;;;;5088504;28;20810;-80
2022/03/06 13:45:01;;;;;;;19.50;11.93;;;;;;;;;;5074003;28;20032;-80
2022/03/06 13:47:27;;;;;;;21.35;13.13;;;;;;;;;;5079828;28;20051;-81
2022/03/06 13:50:00;;;;;;;20.23;12.82;;;;;;;;;;5087794;28;20069;-80
2022/03/06 13:52:36;;;;;;;19.85;12.63;;;;;;;;;;5080993;28;20122;-80
2022/03/06 13:55:14;;;;;;;20.13;12.38;;;;;;;;;;5078288;28;20040;-80
2022/03/06 13:57:41;;;;;;;18.27;11.57;;;;;;;;;;5069990;28;20040;-80
2022/03/06 14:00:20;;;;;;;19.05;12.85;;;;;;;;;;5080847;28;20024;-81
2022/03/06 14:02:47;;;;;;;19.95;13.55;;;;;;;;;;5074872;28;20122;-81
2022/03/06 14:05:13;;;;;;;23.23;13.68;;;;;;;;;;5086776;28;20076;-81
2022/03/06 14:07:39;;;;;;;22.13;13.65;;;;;;;;;;5083411;28;20040;-81
2022/03/06 14:10:05;;;;;;;19.30;12.35;;;;;;;;;;5082863;28;20074;-80
2022/03/06 14:12:35;;;;;;;23.00;12.95;;;;;;;;;;5080784;28;20412;-81
2022/03/06 14:15:01;;;;;;;19.63;12.02;;;;;;;;;;5076783;28;20024;-81
2022/03/06 14:17:27;;;;;;;18.85;13.23;;;;;;;;;;5080737;28;20679;-81
2022/03/06 14:20:00;;;;;;;20.25;12.27;;;;;;;;;;5076345;28;20042;-81
2022/03/06 14:22:26;;;;;;;19.88;12.55;;;;;;;;;;5078650;28;20037;-80
2022/03/06 14:24:52;;;;;;;18.63;12.63;;;;;;;;;;5079206;28;20024;-81
2022/03/06 14:27:18;;;;;;;21.08;12.93;;;;;;;;;;5081397;28;20393;-81
2022/03/06 14:29:46;;;;;;;16.98;11.23;;;;;;;;;;5078651;28;20024;-81